Time;durP1;ratioP1;P1;durP2;ratioP2;P2;SDS_P1;SDS_P2;PMS_P1;PMS_P2;Temp;Humidity;BMP_temperature;BMP_pressure;BME280_temperature;BME280_humidity;BME280_pressure;Samples;Min_cycle;Max_cycle;Signal;HPM_P1;HPM_P2
2021/09/08 00:02:24;;;;;;;9.67;7.20;;;16.80;99.90;;;;;;5054012;28;20201;-77
2021/09/08 00:04:49;;;;;;;9.57;6.80;;;16.80;99.90;;;;;;5019488;28;20224;-77
2021/09/08 00:07:15;;;;;;;8.33;6.40;;;16.80;99.90;;;;;;5052446;28;20178;-76
2021/09/08 00:09:41;;;;;;;9.53;6.30;;;16.80;99.90;;;;;;5019020;28;20174;-77
2021/09/08 00:12:06;;;;;;;11.33;6.93;;;16.70;99.90;;;;;;5052386;28;20183;-77
2021/09/08 00:14:32;;;;;;;9.70;6.60;;;16.70;99.90;;;;;;5035747;28;20204;-77
2021/09/08 00:16:58;;;;;;;8.23;6.47;;;16.70;99.90;;;;;;5019182;28;20218;-77
2021/09/08 00:19:24;;;;;;;9.73;6.60;;;16.70;99.90;;;;;;5035494;28;20265;-77
2021/09/08 00:21:49;;;;;;;10.80;6.33;;;16.70;99.90;;;;;;5019266;28;20258;-77
2021/09/08 00:24:15;;;;;;;9.83;6.33;;;16.70;99.90;;;;;;5018788;28;20190;-77
2021/09/08 00:26:40;;;;;;;9.67;7.03;;;16.70;99.90;;;;;;5052242;28;20178;-77
2021/09/08 00:29:06;;;;;;;8.80;6.27;;;16.60;99.90;;;;;;5035344;28;20177;-77
2021/09/08 00:31:32;;;;;;;11.73;6.77;;;16.60;99.90;;;;;;5019004;28;20181;-76
2021/09/08 00:33:57;;;;;;;9.93;7.20;;;16.60;99.90;;;;;;5052025;28;20189;-77
2021/09/08 00:36:23;;;;;;;9.33;6.70;;;16.50;99.90;;;;;;5035372;28;20197;-77
2021/09/08 00:38:48;;;;;;;9.73;6.90;;;16.50;99.90;;;;;;5035357;28;20652;-76
2021/09/08 00:41:14;;;;;;;8.87;6.53;;;16.50;99.90;;;;;;5051864;28;20257;-77
2021/09/08 00:43:40;;;;;;;9.73;6.27;;;16.40;99.90;;;;;;5018785;28;20210;-76
2021/09/08 00:46:06;;;;;;;8.67;6.63;;;16.40;99.90;;;;;;5035104;28;20595;-77
2021/09/08 00:48:31;;;;;;;9.57;6.50;;;16.30;99.90;;;;;;5035188;28;20166;-77
2021/09/08 00:50:57;;;;;;;10.97;6.43;;;16.30;99.90;;;;;;5035210;28;20181;-77
2021/09/08 00:53:23;;;;;;;8.73;6.70;;;16.30;99.90;;;;;;5035374;28;20593;-77
2021/09/08 00:55:48;;;;;;;7.80;6.47;;;16.20;99.90;;;;;;5034023;28;20689;-77
2021/09/08 00:58:14;;;;;;;10.53;6.93;;;16.20;99.90;;;;;;5034917;28;20643;-76
2021/09/08 01:00:40;;;;;;;8.93;6.37;;;16.10;99.90;;;;;;5034611;28;20185;-76
2021/09/08 01:03:06;;;;;;;8.37;6.17;;;16.00;99.90;;;;;;5034194;28;20209;-76
2021/09/08 01:05:32;;;;;;;8.03;6.27;;;16.00;99.90;;;;;;5050519;28;20214;-76
2021/09/08 01:07:59;;;;;;;10.43;6.40;;;15.90;99.90;;;;;;5050813;28;20263;-76
2021/09/08 01:10:25;;;;;;;9.63;6.87;;;15.90;99.90;;;;;;5017908;28;20185;-77
2021/09/08 01:12:50;;;;;;;10.67;6.50;;;15.80;99.90;;;;;;5050944;28;20189;-76
2021/09/08 01:15:16;;;;;;;10.43;7.40;;;15.80;99.90;;;;;;5034184;28;20207;-76
2021/09/08 01:17:42;;;;;;;9.10;6.60;;;15.70;99.90;;;;;;5017751;28;20179;-76
2021/09/08 01:20:08;;;;;;;10.57;6.87;;;15.70;99.90;;;;;;5034063;28;20174;-76
2021/09/08 01:22:48;;;;;;;10.60;6.93;;;15.60;99.90;;;;;;5017523;28;20210;-76
2021/09/08 01:25:27;;;;;;;12.43;7.40;;;15.60;99.90;;;;;;5018851;28;20204;-76
2021/09/08 01:27:54;;;;;;;9.67;7.00;;;15.60;99.90;;;;;;5050545;28;20529;-77
2021/09/08 01:30:21;;;;;;;10.37;7.00;;;15.50;99.90;;;;;;5033761;28;20181;-76
2021/09/08 01:32:50;;;;;;;11.23;7.83;;;15.50;99.90;;;;;;5034202;28;20185;-76
2021/09/08 01:35:16;;;;;;;10.60;7.53;;;15.50;99.90;;;;;;5034453;28;20233;-76
2021/09/08 01:37:42;;;;;;;9.50;7.10;;;15.50;99.90;;;;;;5050827;28;20183;-76
2021/09/08 01:40:08;;;;;;;9.30;7.10;;;15.40;99.90;;;;;;5051586;28;20174;-76
2021/09/08 01:42:33;;;;;;;11.17;7.43;;;15.40;99.90;;;;;;5017426;28;20695;-76
2021/09/08 01:44:59;;;;;;;12.40;7.43;;;15.30;99.90;;;;;;5017233;28;20201;-77
2021/09/08 01:47:24;;;;;;;10.73;7.50;;;15.30;99.90;;;;;;5050475;28;20182;-75
2021/09/08 01:49:50;;;;;;;12.77;7.40;;;15.30;99.90;;;;;;5050286;28;20173;-75
2021/09/08 01:52:16;;;;;;;11.53;7.73;;;15.20;99.90;;;;;;5033881;28;20672;-76
2021/09/08 01:54:42;;;;;;;10.77;7.87;;;15.20;99.90;;;;;;5016996;28;20241;-77
2021/09/08 01:57:07;;;;;;;10.93;7.70;;;15.20;99.90;;;;;;5034041;28;20224;-77
2021/09/08 01:59:33;;;;;;;10.93;7.87;;;15.10;99.90;;;;;;5051328;28;20677;-76
2021/09/08 02:01:58;;;;;;;10.33;7.83;;;15.10;99.90;;;;;;5033676;28;20202;-76
2021/09/08 02:04:24;;;;;;;11.93;8.07;;;15.10;99.90;;;;;;5049528;28;20205;-76
2021/09/08 02:06:51;;;;;;;10.67;7.20;;;15.10;99.90;;;;;;5017390;28;20537;-76
2021/09/08 02:09:17;;;;;;;9.17;7.33;;;15.00;99.90;;;;;;5037404;28;20175;-76
2021/09/08 02:11:43;;;;;;;10.20;7.63;;;15.00;99.90;;;;;;5054092;28;20236;-76
2021/09/08 02:14:09;;;;;;;9.97;7.50;;;15.00;99.90;;;;;;5054217;28;20518;-76
2021/09/08 02:16:34;;;;;;;9.87;7.23;;;15.00;99.90;;;;;;5037308;28;20186;-76
2021/09/08 02:19:00;;;;;;;10.50;7.83;;;15.00;99.90;;;;;;5053777;28;20232;-77
2021/09/08 02:21:26;;;;;;;11.50;7.60;;;14.90;99.90;;;;;;5020738;28;20272;-76
2021/09/08 02:23:52;;;;;;;10.70;7.57;;;14.90;99.90;;;;;;5037358;28;20201;-76
2021/09/08 02:26:18;;;;;;;10.57;7.53;;;14.90;99.90;;;;;;5037284;28;20186;-76
2021/09/08 02:28:43;;;;;;;10.67;7.93;;;14.80;99.90;;;;;;5054740;28;20174;-76
2021/09/08 02:31:09;;;;;;;10.50;7.60;;;14.80;99.90;;;;;;5020233;28;20217;-76
2021/09/08 02:33:35;;;;;;;8.90;6.97;;;14.80;99.90;;;;;;5036952;28;20186;-76
2021/09/08 02:36:00;;;;;;;10.40;7.87;;;14.80;99.90;;;;;;5053367;28;20251;-78
2021/09/08 02:38:27;;;;;;;12.57;7.53;;;14.80;99.90;;;;;;5053533;28;20291;-77
2021/09/08 02:40:53;;;;;;;11.30;7.80;;;14.80;99.90;;;;;;5037982;28;20178;-76
2021/09/08 02:43:19;;;;;;;9.67;7.47;;;14.70;99.90;;;;;;5038082;28;20732;-76
2021/09/08 02:45:45;;;;;;;9.53;7.50;;;14.70;99.90;;;;;;5037946;28;20252;-77
2021/09/08 02:48:10;;;;;;;9.43;7.40;;;14.70;99.90;;;;;;5037596;28;20174;-77
2021/09/08 02:50:36;;;;;;;10.00;7.70;;;14.70;99.90;;;;;;5037821;28;20175;-78
2021/09/08 02:53:01;;;;;;;10.47;7.63;;;14.70;99.90;;;;;;5021325;28;20183;-77
2021/09/08 02:55:27;;;;;;;10.47;7.87;;;14.60;99.90;;;;;;5069285;22;20242;-74
2021/09/08 02:57:52;;;;;;;10.97;8.20;;;14.60;99.90;;;;;;5013308;28;20574;-74
2021/09/08 03:00:18;;;;;;;11.63;8.40;;;14.60;99.90;;;;;;5013403;28;20179;-74
2021/09/08 03:02:44;;;;;;;10.40;7.70;;;14.60;99.90;;;;;;5014402;28;20576;-74
2021/09/08 03:05:10;;;;;;;12.10;8.20;;;14.60;99.90;;;;;;5013085;28;20183;-74
2021/09/08 03:07:35;;;;;;;10.57;7.90;;;14.50;99.90;;;;;;5013341;28;20184;-74
2021/09/08 03:10:01;;;;;;;10.47;8.20;;;14.50;99.90;;;;;;5012889;28;20178;-75
2021/09/08 03:12:27;;;;;;;9.73;7.57;;;14.50;99.90;;;;;;4980337;28;20198;-74
2021/09/08 03:14:52;;;;;;;11.07;8.23;;;14.50;99.90;;;;;;4996633;28;20662;-74
2021/09/08 03:17:18;;;;;;;10.90;8.47;;;14.40;99.90;;;;;;4996633;28;20571;-74
2021/09/08 03:19:43;;;;;;;12.43;8.73;;;14.40;99.90;;;;;;4995504;28;20647;-74
2021/09/08 03:22:09;;;;;;;11.83;8.40;;;14.40;99.90;;;;;;4996388;28;20218;-74
2021/09/08 03:24:34;;;;;;;12.60;8.77;;;14.40;99.90;;;;;;4996592;28;20168;-74
2021/09/08 03:27:00;;;;;;;13.33;9.53;;;14.40;99.90;;;;;;4996585;28;20195;-74
2021/09/08 03:29:26;;;;;;;12.57;8.50;;;14.40;99.90;;;;;;4996232;28;20180;-75
2021/09/08 03:31:51;;;;;;;14.30;9.37;;;14.40;99.90;;;;;;5012691;28;20179;-74
2021/09/08 03:34:17;;;;;;;12.53;8.77;;;14.40;99.90;;;;;;5012661;28;20179;-74
2021/09/08 03:36:42;;;;;;;12.97;9.57;;;14.40;99.90;;;;;;4979975;28;20245;-74
2021/09/08 03:39:08;;;;;;;12.13;9.30;;;14.40;99.90;;;;;;4996046;28;20179;-74
2021/09/08 03:41:33;;;;;;;11.37;8.87;;;14.40;99.90;;;;;;5012402;28;20533;-74
2021/09/08 03:43:59;;;;;;;12.70;9.03;;;14.40;99.90;;;;;;5012473;28;20672;-74
2021/09/08 03:46:24;;;;;;;10.90;8.30;;;14.40;99.90;;;;;;5012381;28;20223;-74
2021/09/08 03:48:50;;;;;;;11.03;8.47;;;14.40;99.90;;;;;;4995965;28;20210;-74
2021/09/08 03:51:16;;;;;;;12.60;8.43;;;14.40;99.90;;;;;;5013548;28;20195;-74
2021/09/08 03:53:41;;;;;;;12.30;8.93;;;14.30;99.90;;;;;;5013395;28;20206;-74
2021/09/08 03:56:07;;;;;;;13.53;8.90;;;14.30;99.90;;;;;;4995753;28;20242;-74
2021/09/08 03:58:32;;;;;;;13.23;8.87;;;14.30;99.90;;;;;;5012224;28;20187;-74
2021/09/08 04:00:58;;;;;;;12.93;9.13;;;14.30;99.90;;;;;;4995756;28;20565;-74
2021/09/08 04:03:23;;;;;;;12.30;9.30;;;14.20;99.90;;;;;;5012056;28;20210;-74
2021/09/08 04:05:49;;;;;;;13.03;9.27;;;14.20;99.90;;;;;;5011998;28;20290;-74
2021/09/08 04:08:14;;;;;;;12.27;9.20;;;14.20;99.90;;;;;;4995712;28;20258;-75
2021/09/08 04:10:40;;;;;;;12.90;9.17;;;14.20;99.90;;;;;;4995477;28;20259;-74
2021/09/08 04:13:06;;;;;;;12.23;9.10;;;14.20;99.90;;;;;;4995635;28;20176;-74
2021/09/08 04:15:32;;;;;;;11.10;8.73;;;14.20;99.90;;;;;;5011879;28;20211;-74
2021/09/08 04:17:58;;;;;;;14.17;9.80;;;14.20;99.90;;;;;;4995810;28;20174;-74
2021/09/08 04:20:24;;;;;;;13.23;9.97;;;14.10;99.90;;;;;;5012928;28;20172;-74
2021/09/08 04:22:50;;;;;;;13.17;9.43;;;14.20;99.90;;;;;;5012881;28;20218;-74
2021/09/08 04:25:15;;;;;;;10.90;8.93;;;14.10;99.90;;;;;;4995361;28;20281;-74
2021/09/08 04:27:41;;;;;;;12.53;9.57;;;14.10;99.90;;;;;;4995263;28;20172;-74
2021/09/08 04:30:06;;;;;;;13.83;9.20;;;14.10;99.90;;;;;;4994946;28;20187;-74
2021/09/08 04:32:32;;;;;;;13.97;9.60;;;14.00;99.90;;;;;;5011666;28;20183;-74
2021/09/08 04:34:58;;;;;;;13.53;9.87;;;14.00;99.90;;;;;;5012716;28;20236;-74
2021/09/08 04:37:23;;;;;;;14.80;10.07;;;14.00;99.90;;;;;;5011547;28;20176;-75
2021/09/08 04:39:49;;;;;;;13.97;10.50;;;14.00;99.90;;;;;;4994991;28;20554;-74
2021/09/08 04:42:14;;;;;;;12.57;9.53;;;14.00;99.90;;;;;;5028934;28;20686;-74
2021/09/08 04:44:41;;;;;;;14.53;10.23;;;13.90;99.90;;;;;;5025066;28;20666;-74
2021/09/08 04:47:07;;;;;;;14.97;10.13;;;13.90;99.90;;;;;;5031163;28;20680;-74
2021/09/08 04:49:32;;;;;;;14.37;10.50;;;13.90;99.90;;;;;;5014682;28;20182;-74
2021/09/08 04:51:58;;;;;;;15.13;9.87;;;13.90;99.90;;;;;;5014677;28;20179;-74
2021/09/08 04:54:23;;;;;;;14.70;10.13;;;13.90;99.90;;;;;;5021872;28;20188;-74
2021/09/08 04:56:49;;;;;;;15.87;10.47;;;13.90;99.90;;;;;;5014372;28;20219;-74
2021/09/08 04:59:14;;;;;;;14.93;10.53;;;13.90;99.90;;;;;;5031084;28;20174;-74
2021/09/08 05:01:40;;;;;;;13.87;10.60;;;13.90;99.90;;;;;;5032037;28;20670;-74
2021/09/08 05:04:05;;;;;;;15.17;10.70;;;13.90;99.90;;;;;;5014504;28;20173;-74
2021/09/08 05:06:31;;;;;;;13.00;9.67;;;14.00;99.90;;;;;;5030743;28;20219;-74
2021/09/08 05:08:56;;;;;;;14.03;10.43;;;14.00;99.90;;;;;;5030643;28;20175;-74
2021/09/08 05:11:22;;;;;;;14.57;10.43;;;14.00;99.90;;;;;;4998021;28;20182;-74
2021/09/08 05:13:47;;;;;;;15.23;10.43;;;13.90;99.90;;;;;;5014164;28;20693;-74
2021/09/08 05:16:13;;;;;;;14.23;10.40;;;13.90;99.90;;;;;;5009446;28;20607;-74
2021/09/08 05:18:39;;;;;;;15.27;10.70;;;13.90;99.90;;;;;;5010761;28;20535;-76
2021/09/08 05:21:04;;;;;;;15.33;11.10;;;14.00;99.90;;;;;;4992342;28;20191;-75
2021/09/08 05:23:30;;;;;;;15.70;10.87;;;14.10;99.90;;;;;;4991620;28;20243;-74
2021/09/08 05:25:55;;;;;;;16.13;10.73;;;14.10;99.90;;;;;;4991159;28;20189;-74
2021/09/08 05:28:21;;;;;;;15.60;10.77;;;14.10;99.90;;;;;;4975155;28;20227;-74
2021/09/08 05:30:47;;;;;;;15.33;10.70;;;14.10;99.90;;;;;;4975171;28;20594;-76
2021/09/08 05:33:13;;;;;;;15.57;11.23;;;14.10;99.90;;;;;;4991420;28;20183;-76
2021/09/08 05:35:38;;;;;;;14.83;10.50;;;14.20;99.90;;;;;;4991931;28;20721;-73
2021/09/08 05:38:04;;;;;;;14.60;10.90;;;14.20;99.90;;;;;;4991172;28;20188;-75
2021/09/08 05:40:29;;;;;;;13.93;10.57;;;14.30;99.90;;;;;;4991016;28;20219;-77
2021/09/08 05:42:55;;;;;;;15.30;10.80;;;14.40;99.90;;;;;;4993110;28;20206;-77
2021/09/08 05:45:20;;;;;;;16.03;11.77;;;14.40;99.90;;;;;;4978786;28;20203;-75
2021/09/08 05:47:46;;;;;;;14.60;10.87;;;14.50;99.90;;;;;;4995549;28;20183;-74
2021/09/08 05:50:12;;;;;;;15.23;10.70;;;14.50;99.90;;;;;;4978586;28;20183;-75
2021/09/08 05:52:38;;;;;;;15.60;10.80;;;14.70;99.90;;;;;;4995119;28;20179;-77
2021/09/08 05:55:04;;;;;;;14.73;10.37;;;14.70;99.90;;;;;;5010895;28;20202;-76
2021/09/08 05:57:29;;;;;;;14.30;10.13;;;14.90;99.90;;;;;;5034456;28;20654;-76
2021/09/08 05:59:55;;;;;;;13.30;10.60;;;15.10;99.90;;;;;;5020014;28;20217;-75
2021/09/08 06:02:20;;;;;;;16.63;11.07;;;15.20;99.90;;;;;;5021871;28;20204;-74
2021/09/08 06:04:46;;;;;;;15.27;10.50;;;15.30;99.90;;;;;;5028728;28;20198;-74
2021/09/08 06:07:12;;;;;;;13.37;10.40;;;15.50;99.90;;;;;;5031631;28;20211;-74
2021/09/08 06:09:38;;;;;;;14.40;10.37;;;15.70;99.90;;;;;;5030199;28;20179;-79
2021/09/08 06:12:03;;;;;;;16.90;10.60;;;15.90;99.90;;;;;;5023275;28;20270;-80
2021/09/08 06:14:30;;;;;;;13.60;9.20;;;16.30;99.90;;;;;;5021547;28;20182;-80
2021/09/08 06:16:55;;;;;;;14.37;9.10;;;16.60;99.90;;;;;;5002859;28;20203;-79
2021/09/08 06:19:21;;;;;;;14.93;10.10;;;16.90;99.90;;;;;;5007273;28;20175;-80
2021/09/08 06:21:46;;;;;;;13.10;10.10;;;17.30;99.90;;;;;;4989905;28;20207;-80
2021/09/08 06:24:13;;;;;;;13.67;9.33;;;17.80;99.90;;;;;;5016305;28;20179;-78
2021/09/08 06:26:39;;;;;;;12.77;9.77;;;18.20;99.90;;;;;;4981228;28;20200;-79
2021/09/08 06:29:05;;;;;;;12.77;8.67;;;18.90;99.90;;;;;;4981779;28;20238;-81
2021/09/08 06:31:30;;;;;;;13.00;9.33;;;20.00;99.90;;;;;;4990271;28;20183;-74
2021/09/08 06:33:56;;;;;;;10.80;8.23;;;21.30;99.90;;;;;;5012685;28;20187;-76
2021/09/08 06:36:21;;;;;;;15.90;8.30;;;22.60;99.90;;;;;;4992092;28;20583;-77
2021/09/08 06:38:48;;;;;;;10.33;8.10;;;23.60;99.90;;;;;;5028306;28;20221;-77
2021/09/08 06:41:13;;;;;;;12.27;8.47;;;24.30;99.90;;;;;;5002512;28;20186;-78
2021/09/08 06:43:39;;;;;;;11.60;8.63;;;24.70;99.90;;;;;;5013493;28;20199;-78
2021/09/08 06:46:04;;;;;;;10.80;7.93;;;25.00;99.90;;;;;;4995629;28;20245;-77
2021/09/08 06:48:30;;;;;;;10.43;7.87;;;25.30;99.90;;;;;;5013705;28;20175;-78
2021/09/08 06:50:55;;;;;;;12.50;8.40;;;25.50;99.90;;;;;;5017445;28;20175;-79
2021/09/08 06:53:21;;;;;;;9.93;8.17;;;25.90;99.90;;;;;;4991717;28;20175;-81
2021/09/08 06:55:46;;;;;;;10.80;7.90;;;26.00;99.90;;;;;;5016957;28;20282;-80
2021/09/08 06:58:12;;;;;;;11.27;7.70;;;26.10;99.90;;;;;;5037456;28;20179;-80
2021/09/08 07:00:37;;;;;;;10.73;8.37;;;26.30;99.90;;;;;;5034633;28;20186;-81
2021/09/08 07:03:03;;;;;;;9.57;7.50;;;26.60;99.90;;;;;;5022303;28;20187;-82
2021/09/08 07:05:29;;;;;;;11.07;7.93;;;26.80;99.90;;;;;;4998274;28;20255;-82
2021/09/08 07:07:54;;;;;;;10.02;8.07;;;25.90;99.90;;;;;;5002314;28;20188;-81
2021/09/08 07:10:20;;;;;;;10.57;7.88;;;25.00;99.90;;;;;;5021630;28;20179;-81
2021/09/08 07:12:46;;;;;;;10.27;7.95;;;24.40;99.90;;;;;;5021822;28;20229;-81
2021/09/08 07:15:11;;;;;;;12.02;7.75;;;23.70;99.90;;;;;;5036542;28;20188;-81
2021/09/08 07:17:37;;;;;;;16.90;8.18;;;23.10;99.90;;;;;;5003307;28;20195;-82
2021/09/08 07:20:02;;;;;;;11.63;8.63;;;22.60;99.90;;;;;;5004142;28;20264;-81
2021/09/08 07:22:28;;;;;;;10.87;8.17;;;22.20;99.90;;;;;;5017477;28;20179;-81
2021/09/08 07:24:53;;;;;;;10.53;7.87;;;21.70;99.90;;;;;;5001940;28;20651;-81
2021/09/08 07:27:19;;;;;;;12.27;8.83;;;21.40;99.90;;;;;;5027673;28;20180;-81
2021/09/08 07:29:44;;;;;;;10.80;8.97;;;21.20;99.90;;;;;;4998416;28;20169;-81
2021/09/08 07:32:10;;;;;;;10.13;8.53;;;21.00;99.90;;;;;;5008074;28;20570;-81
2021/09/08 07:34:37;;;;;;;12.30;8.40;;;20.90;99.90;;;;;;5007864;28;20616;-81
2021/09/08 07:37:03;;;;;;;10.67;8.50;;;20.80;99.90;;;;;;5025389;28;20195;-81
2021/09/08 07:39:29;;;;;;;14.13;9.03;;;20.80;99.90;;;;;;5000578;28;20218;-81
2021/09/08 07:41:55;;;;;;;12.50;9.10;;;20.90;99.90;;;;;;4998860;28;20291;-81
2021/09/08 07:44:21;;;;;;;15.00;9.07;;;21.00;99.90;;;;;;5023267;28;20202;-80
2021/09/08 07:46:46;;;;;;;12.13;8.87;;;21.00;99.90;;;;;;4978281;28;20206;-79
2021/09/08 07:49:12;;;;;;;12.13;8.57;;;21.10;99.90;;;;;;4977250;28;20182;-77
2021/09/08 07:51:37;;;;;;;10.43;7.93;;;21.20;99.90;;;;;;4977103;28;20200;-76
2021/09/08 07:54:03;;;;;;;12.23;8.70;;;21.40;99.90;;;;;;4992361;28;20176;-76
2021/09/08 07:56:28;;;;;;;12.87;8.67;;;21.40;99.90;;;;;;4976122;28;20306;-76
2021/09/08 07:58:54;;;;;;;10.87;8.70;;;21.50;99.90;;;;;;4993509;28;20173;-75
2021/09/08 08:01:19;;;;;;;11.97;8.77;;;21.50;99.90;;;;;;4992471;28;20251;-75
2021/09/08 08:03:45;;;;;;;11.93;9.03;;;21.60;99.90;;;;;;4993493;28;20246;-75
2021/09/08 08:06:10;;;;;;;11.83;8.33;;;21.70;99.90;;;;;;4991840;28;20192;-75
2021/09/08 08:08:36;;;;;;;12.00;8.53;;;21.90;99.90;;;;;;4976112;28;20620;-75
2021/09/08 08:11:01;;;;;;;12.00;8.40;;;22.10;99.90;;;;;;4976632;28;20179;-76
2021/09/08 08:13:27;;;;;;;11.97;8.60;;;22.10;99.90;;;;;;4992232;28;20578;-76
2021/09/08 08:15:53;;;;;;;11.70;8.53;;;22.20;99.90;;;;;;4976427;28;20616;-76
2021/09/08 08:18:19;;;;;;;12.73;8.57;;;22.50;99.90;;;;;;4976380;28;20183;-76
2021/09/08 08:20:44;;;;;;;13.13;8.57;;;22.70;99.90;;;;;;4975939;28;20255;-75
2021/09/08 08:23:10;;;;;;;12.60;9.10;;;22.90;99.90;;;;;;4992032;28;20208;-75
2021/09/08 08:25:35;;;;;;;12.63;8.10;;;23.00;99.90;;;;;;4975814;28;20591;-75
2021/09/08 08:28:04;;;;;;;11.97;8.60;;;23.20;99.90;;;;;;4975809;28;20175;-76
2021/09/08 08:30:30;;;;;;;12.97;8.93;;;23.40;99.90;;;;;;4992289;28;20179;-75
2021/09/08 08:32:56;;;;;;;10.97;8.50;;;23.50;99.90;;;;;;4975779;28;20271;-75
2021/09/08 08:35:22;;;;;;;13.23;9.50;;;23.50;99.90;;;;;;4975450;28;20288;-75
2021/09/08 08:37:49;;;;;;;15.17;9.37;;;23.70;99.90;;;;;;4991844;28;20591;-75
2021/09/08 08:40:14;;;;;;;13.23;9.20;;;23.60;99.90;;;;;;4975773;28;20581;-75
2021/09/08 08:42:40;;;;;;;12.30;9.37;;;23.60;99.90;;;;;;4991781;28;20239;-75
2021/09/08 08:45:07;;;;;;;13.77;9.17;;;23.60;99.90;;;;;;4991674;28;20540;-77
2021/09/08 08:47:33;;;;;;;11.00;8.80;;;23.70;99.90;;;;;;4992026;28;20191;-75
2021/09/08 08:49:59;;;;;;;14.50;9.13;;;23.80;99.90;;;;;;4975310;28;20246;-75
2021/09/08 08:52:25;;;;;;;11.67;8.60;;;24.00;99.90;;;;;;4975703;28;20659;-78
2021/09/08 08:54:50;;;;;;;10.85;8.45;;;24.10;99.90;;;;;;4959680;28;20211;-76
2021/09/08 08:57:16;;;;;;;11.73;8.83;;;24.20;99.90;;;;;;5051852;23;20239;-82
2021/09/08 08:59:43;;;;;;;12.40;8.97;;;24.30;99.90;;;;;;4982597;28;20179;-79
2021/09/08 09:02:28;;;;;;;13.60;9.20;;;24.30;99.90;;;;;;4997504;28;20276;-79
2021/09/08 09:04:56;;;;;;;11.53;9.40;;;24.40;99.90;;;;;;4982542;28;20233;-78
2021/09/08 09:07:35;;;;;;;10.87;8.10;;;24.30;99.90;;;;;;4997618;28;20633;-77
2021/09/08 09:10:04;;;;;;;11.13;8.77;;;24.30;99.90;;;;;;4982422;28;20179;-78
2021/09/08 09:12:33;;;;;;;10.80;8.63;;;24.60;99.90;;;;;;5002478;28;20214;-78
2021/09/08 09:14:59;;;;;;;13.23;8.90;;;24.50;99.90;;;;;;4984861;28;20179;-77
2021/09/08 09:17:27;;;;;;;11.23;9.37;;;24.50;99.90;;;;;;4967125;28;20214;-79
2021/09/08 09:19:52;;;;;;;11.27;8.85;;;24.50;99.90;;;;;;4982624;28;20184;-78
2021/09/08 09:22:18;;;;;;;9.40;8.37;;;24.60;99.90;;;;;;4966532;28;20203;-78
2021/09/08 09:24:45;;;;;;;12.73;9.33;;;24.70;99.90;;;;;;4968230;28;20271;-78
2021/09/08 09:27:11;;;;;;;13.10;9.03;;;24.80;99.90;;;;;;4967837;28;20605;-79
2021/09/08 09:29:42;;;;;;;12.57;9.13;;;24.80;99.90;;;;;;4968506;28;20187;-78
2021/09/08 09:32:08;;;;;;;13.30;9.02;;;24.90;99.90;;;;;;4969496;28;20733;-79
2021/09/08 09:34:35;;;;;;;10.50;9.40;;;24.80;99.90;;;;;;4969122;28;20270;-80
2021/09/08 09:37:01;;;;;;;11.30;8.52;;;24.80;99.90;;;;;;4970038;28;20199;-79
2021/09/08 09:39:32;;;;;;;11.35;8.98;;;24.80;99.90;;;;;;4968701;28;20195;-78
2021/09/08 09:42:09;;;;;;;10.00;7.90;;;24.80;99.90;;;;;;4968226;28;20203;-79
2021/09/08 09:44:34;;;;;;;9.50;7.50;;;24.80;99.90;;;;;;4968588;28;20175;-78
2021/09/08 09:47:02;;;;;;;12.63;8.82;;;25.10;99.90;;;;;;4984305;28;20246;-80
2021/09/08 09:49:31;;;;;;;11.73;8.93;;;25.10;99.90;;;;;;4968968;28;20176;-79
2021/09/08 09:51:56;;;;;;;10.20;8.45;;;25.20;99.90;;;;;;4984625;28;20179;-78
2021/09/08 09:54:23;;;;;;;12.33;8.20;;;25.20;99.90;;;;;;4984747;28;20226;-79
2021/09/08 09:56:48;;;;;;;9.88;7.90;;;25.20;99.90;;;;;;4983953;28;20238;-79
2021/09/08 09:59:14;;;;;;;11.13;8.43;;;25.20;99.90;;;;;;4984267;28;20635;-79
2021/09/08 10:01:40;;;;;;;10.27;8.75;;;25.30;99.90;;;;;;4967148;28;20179;-78
2021/09/08 10:04:06;;;;;;;11.95;8.80;;;25.30;99.90;;;;;;4967054;28;20179;-79
2021/09/08 10:06:31;;;;;;;14.07;9.00;;;25.20;99.90;;;;;;4981933;28;20198;-78
2021/09/08 10:08:57;;;;;;;15.32;8.52;;;25.30;99.90;;;;;;4965473;28;20178;-77
2021/09/08 10:11:24;;;;;;;10.10;8.35;;;25.20;99.90;;;;;;4982625;28;20172;-79
2021/09/08 10:13:55;;;;;;;10.27;8.15;;;25.30;99.90;;;;;;4966388;28;20262;-79
2021/09/08 10:16:22;;;;;;;12.52;8.68;;;25.40;99.90;;;;;;4982095;28;20191;-79
2021/09/08 10:18:48;;;;;;;10.27;8.20;;;25.50;99.90;;;;;;4966037;28;20179;-78
2021/09/08 10:21:19;;;;;;;11.48;8.10;;;25.70;99.90;;;;;;4966383;28;20187;-79
2021/09/08 10:23:58;;;;;;;10.57;8.45;;;25.80;99.90;;;;;;4982793;28;20204;-79
2021/09/08 10:26:28;;;;;;;11.73;8.70;;;25.90;99.90;;;;;;4967659;28;20203;-79
2021/09/08 10:28:53;;;;;;;11.85;9.05;;;25.90;99.90;;;;;;4998743;28;20183;-77
2021/09/08 10:31:19;;;;;;;15.88;9.60;;;25.90;99.90;;;;;;4985017;28;20661;-78
2021/09/08 10:33:45;;;;;;;12.93;8.63;;;25.90;99.90;;;;;;4984233;28;20325;-77
2021/09/08 10:36:11;;;;;;;10.55;8.13;;;25.90;99.90;;;;;;4969799;28;20203;-80
2021/09/08 10:38:37;;;;;;;10.65;8.05;;;25.90;99.90;;;;;;4986799;28;20171;-77
2021/09/08 10:41:03;;;;;;;10.30;8.48;;;26.00;99.90;;;;;;4986770;28;20259;-81
2021/09/08 10:43:30;;;;;;;14.05;8.68;;;26.10;99.90;;;;;;4985420;28;20590;-80
2021/09/08 10:45:55;;;;;;;9.82;7.90;;;26.10;99.90;;;;;;4985983;28;20195;-84
2021/09/08 10:48:42;;;;;;;11.45;8.23;;;26.00;99.90;;;;;;4969868;28;20188;-81
2021/09/08 10:51:09;;;;;;;13.63;8.85;;;26.20;99.90;;;;;;4986106;28;20254;-83
2021/09/08 10:53:35;;;;;;;11.07;8.60;;;26.30;99.90;;;;;;4987271;28;20225;-83
2021/09/08 10:56:01;;;;;;;11.40;8.05;;;26.20;99.90;;;;;;4968200;28;20234;-83
2021/09/08 10:58:58;;;;;;;10.73;8.10;;;26.20;99.90;;;;;;4969940;28;20182;-83
2021/09/08 11:01:24;;;;;;;9.85;7.03;;;26.20;99.90;;;;;;4984246;28;20245;-84
2021/09/08 11:03:51;;;;;;;9.45;7.78;;;26.30;99.90;;;;;;4967051;28;20211;-85
2021/09/08 11:06:16;;;;;;;8.00;7.07;;;26.40;99.90;;;;;;4985538;28;20278;-87
2021/09/08 11:08:44;;;;;;;10.57;7.80;;;26.50;99.90;;;;;;4968164;28;20283;-84
2021/09/08 11:11:18;;;;;;;9.93;7.90;;;26.40;99.90;;;;;;4970632;28;20184;-84
2021/09/08 11:13:44;;;;;;;7.75;6.60;;;26.50;99.90;;;;;;4969852;28;20206;-84
2021/09/08 11:16:27;;;;;;;9.70;7.22;;;26.60;99.90;;;;;;4984203;28;20199;-84
2021/09/08 11:18:53;;;;;;;10.25;7.03;;;26.80;99.90;;;;;;4971483;28;20190;-84
2021/09/08 11:21:21;;;;;;;9.13;6.53;;;26.80;99.90;;;;;;4968863;28;20180;-82
2021/09/08 11:23:49;;;;;;;8.00;6.75;;;26.90;99.90;;;;;;4970544;28;20211;-83
2021/09/08 11:26:15;;;;;;;9.43;7.57;;;26.90;99.90;;;;;;4969407;28;20354;-83
2021/09/08 11:28:40;;;;;;;12.30;7.93;;;27.00;99.90;;;;;;4969622;28;20655;-84
2021/09/08 11:31:17;;;;;;;9.98;6.75;;;27.00;99.90;;;;;;4969146;28;20604;-77
2021/09/08 11:33:43;;;;;;;8.30;6.30;;;27.00;99.90;;;;;;4969890;28;20222;-81
2021/09/08 11:36:14;;;;;;;7.38;5.45;;;27.20;99.90;;;;;;5001033;28;20195;-79
2021/09/08 11:38:47;;;;;;;5.85;5.25;;;27.30;99.90;;;;;;4971207;28;20212;-79
2021/09/08 11:41:14;;;;;;;6.65;5.68;;;27.40;99.90;;;;;;4986234;28;20678;-80
2021/09/08 11:43:46;;;;;;;6.60;5.93;;;27.50;99.90;;;;;;4982126;28;20206;-81
2021/09/08 11:46:21;;;;;;;6.93;5.90;;;27.50;99.90;;;;;;4980175;28;20220;-78
2021/09/08 11:48:51;;;;;;;6.80;5.70;;;27.30;99.90;;;;;;4990157;28;20175;-79
2021/09/08 11:51:18;;;;;;;6.38;5.53;;;27.20;99.90;;;;;;4993095;28;20171;-77
2021/09/08 11:53:44;;;;;;;6.78;5.80;;;27.10;99.90;;;;;;5010969;28;20179;-77
2021/09/08 11:56:10;;;;;;;6.55;5.63;;;27.30;99.90;;;;;;5014931;28;20218;-77
2021/09/08 11:58:36;;;;;;;7.07;5.97;;;27.30;99.90;;;;;;4980096;28;20183;-77
2021/09/08 12:01:08;;;;;;;7.57;5.43;;;27.30;99.90;;;;;;4995008;28;20176;-77
2021/09/08 12:03:36;;;;;;;8.20;6.15;;;27.20;99.90;;;;;;5011483;28;20262;-77
2021/09/08 12:06:08;;;;;;;7.28;5.82;;;27.20;99.90;;;;;;4977358;28;20565;-78
2021/09/08 12:08:34;;;;;;;8.05;5.78;;;27.30;99.90;;;;;;4994594;28;20179;-75
2021/09/08 12:11:00;;;;;;;7.55;5.60;;;27.40;99.90;;;;;;5003114;28;20179;-74
2021/09/08 12:13:29;;;;;;;6.03;5.43;;;27.30;99.90;;;;;;4995008;28;20175;-74
2021/09/08 12:15:56;;;;;;;7.35;5.80;;;27.40;99.90;;;;;;4994951;28;20191;-74
2021/09/08 12:18:21;;;;;;;6.45;5.72;;;27.30;99.90;;;;;;4997263;28;20527;-74
2021/09/08 12:20:47;;;;;;;7.43;5.82;;;27.30;99.90;;;;;;4995001;28;20172;-74
2021/09/08 12:23:29;;;;;;;6.95;5.50;;;27.30;99.90;;;;;;4978933;28;20240;-74
2021/09/08 12:26:11;;;;;;;8.13;6.03;;;27.30;99.90;;;;;;4979808;28;20199;-74
2021/09/08 12:28:37;;;;;;;6.78;6.07;;;27.30;99.90;;;;;;4979107;28;20172;-74
2021/09/08 12:31:17;;;;;;;6.70;5.53;;;27.30;99.90;;;;;;4995630;28;20238;-74
2021/09/08 12:33:52;;;;;;;6.57;4.88;;;27.30;99.90;;;;;;5001500;28;20179;-74
2021/09/08 12:36:18;;;;;;;5.93;5.32;;;27.40;99.90;;;;;;5007379;28;20652;-74